Time;durP1;ratioP1;P1;durP2;ratioP2;P2;SDS_P1;SDS_P2;PMS_P1;PMS_P2;Temp;Humidity;BMP_temperature;BMP_pressure;BME280_temperature;BME280_humidity;BME280_pressure;Samples;Min_cycle;Max_cycle;Signal;HPM_P1;HPM_P2
2021/09/17 00:09:20;;;;;;;8.52;5.53;;;15.00;99.90;;;;;;6718651;88;20807;-79
2021/09/17 00:19:20;;;;;;;10.38;5.72;;;14.70;99.90;;;;;;6719992;88;20199;-77
2021/09/17 00:29:21;;;;;;;9.32;5.70;;;14.80;99.90;;;;;;6719122;88;20295;-78
2021/09/17 00:49:25;;;;;;;9.65;6.00;;;14.60;99.90;;;;;;6736213;88;20231;-79
2021/09/17 00:59:26;;;;;;;7.80;5.87;;;14.70;99.90;;;;;;6743613;88;20193;-79
2021/09/17 01:09:27;;;;;;;7.60;5.25;;;14.40;99.90;;;;;;6738591;88;20174;-77
2021/09/17 01:19:27;;;;;;;11.43;6.65;;;14.30;99.90;;;;;;6743009;88;20206;-81
2021/09/17 01:29:28;;;;;;;9.83;5.90;;;14.10;99.90;;;;;;6741426;88;20768;-78
2021/09/17 01:39:28;;;;;;;7.22;5.97;;;14.00;99.90;;;;;;6720290;88;20200;-79
2021/09/17 01:49:29;;;;;;;9.10;6.53;;;13.90;99.90;;;;;;6730948;88;20182;-81
2021/09/17 01:59:29;;;;;;;8.18;5.90;;;13.80;99.90;;;;;;6730243;88;20193;-80
2021/09/17 02:09:30;;;;;;;7.78;5.60;;;13.80;99.90;;;;;;6728930;88;20251;-78
2021/09/17 02:19:30;;;;;;;8.48;5.72;;;13.80;99.90;;;;;;6727556;88;20273;-78
2021/09/17 02:29:31;;;;;;;6.87;5.82;;;13.80;99.90;;;;;;6728447;88;20214;-79
2021/09/17 02:39:32;;;;;;;7.72;6.30;;;13.90;99.90;;;;;;6728730;88;20181;-79
2021/09/17 02:49:33;;;;;;;10.18;6.43;;;13.80;99.90;;;;;;6729532;88;20714;-78
2021/09/17 02:59:34;;;;;;;8.30;6.10;;;13.80;99.90;;;;;;6728961;88;20193;-78
2021/09/17 03:09:34;;;;;;;6.85;6.05;;;13.70;99.90;;;;;;6731361;88;20237;-78
2021/09/17 03:19:36;;;;;;;11.20;6.43;;;13.60;99.90;;;;;;6730824;88;20710;-78
2021/09/17 03:29:36;;;;;;;8.45;6.07;;;13.70;99.90;;;;;;6734089;88;20212;-79
2021/09/17 03:39:37;;;;;;;9.07;6.10;;;13.50;99.90;;;;;;6744574;88;20181;-79
2021/09/17 03:49:38;;;;;;;9.52;6.55;;;13.60;99.90;;;;;;6733872;88;20949;-78
2021/09/17 03:59:39;;;;;;;9.93;6.50;;;13.60;99.90;;;;;;6737290;88;20203;-79
2021/09/17 04:09:39;;;;;;;13.30;7.50;;;13.40;99.90;;;;;;6723925;88;20751;-79
2021/09/17 04:19:40;;;;;;;10.93;7.97;;;13.30;99.90;;;;;;6719592;88;20206;-79
2021/09/17 04:29:40;;;;;;;10.50;8.00;;;13.30;99.90;;;;;;6723877;88;20197;-79
2021/09/17 04:39:41;;;;;;;13.80;9.65;;;13.10;99.90;;;;;;6724809;88;20271;-78
2021/09/17 04:49:41;;;;;;;14.38;10.43;;;13.10;99.90;;;;;;6725164;88;20197;-81
2021/09/17 04:59:42;;;;;;;14.87;10.60;;;13.00;99.90;;;;;;6724491;88;20235;-79
2021/09/17 05:09:42;;;;;;;15.75;10.50;;;13.00;99.90;;;;;;6719707;88;20197;-79
2021/09/17 05:19:43;;;;;;;18.15;10.93;;;13.10;99.90;;;;;;6723664;88;20203;-78
2021/09/17 05:29:43;;;;;;;13.52;10.45;;;13.20;99.90;;;;;;6736666;88;20201;-79
2021/09/17 05:39:44;;;;;;;13.85;9.48;;;13.20;99.90;;;;;;6745805;88;20973;-79
2021/09/17 05:49:44;;;;;;;16.87;10.18;;;13.20;99.90;;;;;;6752612;88;20172;-79
2021/09/17 05:59:45;;;;;;;14.52;9.52;;;13.40;99.90;;;;;;6744800;88;20215;-81
2021/09/17 06:09:45;;;;;;;12.55;9.00;;;13.50;99.90;;;;;;6743159;88;20223;-79
2021/09/17 06:19:46;;;;;;;11.05;8.43;;;13.60;99.90;;;;;;6743058;88;20216;-79
2021/09/17 06:29:47;;;;;;;10.55;8.65;;;13.70;99.90;;;;;;6745666;88;20200;-80
2021/09/17 06:49:50;;;;;;;13.20;8.40;;;14.20;99.90;;;;;;6722569;88;20234;-78
2021/09/17 06:59:51;;;;;;;10.55;8.05;;;14.50;99.90;;;;;;6697299;88;20683;-78
2021/09/17 07:09:52;;;;;;;10.45;7.62;;;14.60;99.90;;;;;;6698567;88;20193;-79
2021/09/17 07:19:52;;;;;;;12.20;8.65;;;14.80;99.90;;;;;;6698516;88;20233;-79
2021/09/17 07:29:53;;;;;;;13.27;7.87;;;14.80;99.90;;;;;;6697896;88;20210;-78
2021/09/17 07:39:53;;;;;;;10.53;8.07;;;15.00;99.90;;;;;;6690974;88;20215;-78
2021/09/17 07:49:54;;;;;;;10.18;7.78;;;15.10;99.90;;;;;;6693506;88;20220;-79
2021/09/17 07:59:54;;;;;;;10.88;7.28;;;15.30;99.90;;;;;;6691782;88;20282;-79
2021/09/17 08:09:55;;;;;;;11.88;6.70;;;15.40;99.90;;;;;;6696826;88;20380;-78
2021/09/17 08:19:55;;;;;;;10.60;7.10;;;15.60;99.90;;;;;;6701440;88;20198;-78
2021/09/17 08:29:56;;;;;;;12.20;7.55;;;15.90;99.90;;;;;;6709934;88;20272;-77
2021/09/17 08:39:56;;;;;;;13.30;7.95;;;16.00;99.90;;;;;;6715342;88;20314;-77
2021/09/17 08:49:57;;;;;;;13.80;7.82;;;15.90;99.90;;;;;;6717187;88;20189;-76
2021/09/17 08:59:58;;;;;;;10.37;7.63;;;16.10;99.90;;;;;;6717394;88;20232;-77
2021/09/17 09:10:13;;;;;;;12.50;6.78;;;16.40;99.90;;;;;;6717722;88;20540;-78
2021/09/17 09:20:29;;;;;;;10.90;6.90;;;16.40;99.90;;;;;;6686049;88;20253;-78
2021/09/17 09:30:30;;;;;;;13.23;7.47;;;16.60;99.90;;;;;;6708162;88;20186;-78
2021/09/17 09:40:33;;;;;;;9.95;6.90;;;16.60;99.90;;;;;;6696398;88;20246;-79
2021/09/17 09:50:33;;;;;;;9.57;6.78;;;17.10;99.90;;;;;;6713033;88;20200;-79
2021/09/17 10:00:34;;;;;;;8.82;6.35;;;17.10;99.90;;;;;;6707852;88;20222;-78
2021/09/17 10:10:35;;;;;;;9.38;6.95;;;17.40;99.90;;;;;;6716979;88;20194;-78
2021/09/17 10:20:37;;;;;;;12.25;5.97;;;17.70;99.90;;;;;;6710825;88;20206;-78
2021/09/17 10:30:41;;;;;;;11.05;6.90;;;17.90;99.90;;;;;;6695092;88;20612;-79
2021/09/17 10:40:55;;;;;;;12.05;6.35;;;18.10;99.90;;;;;;6698496;88;20241;-79
2021/09/17 10:51:01;;;;;;;10.95;5.70;;;18.30;99.90;;;;;;6696058;88;20182;-77
2021/09/17 11:01:06;;;;;;;10.93;6.18;;;18.70;99.90;;;;;;6694060;88;20199;-77
2021/09/17 11:11:24;;;;;;;10.50;6.12;;;18.70;99.90;;;;;;6690923;88;20221;-77
2021/09/17 11:21:25;;;;;;;9.35;6.00;;;18.90;99.90;;;;;;6696801;88;20728;-78
2021/09/17 11:31:31;;;;;;;11.82;6.45;;;19.50;99.90;;;;;;6690461;88;20183;-77
2021/09/17 11:41:39;;;;;;;12.07;6.53;;;19.40;99.90;;;;;;6694856;88;20199;-77
2021/09/17 11:51:39;;;;;;;9.05;5.18;;;20.50;99.90;;;;;;6691195;88;20595;-77
2021/09/17 12:01:40;;;;;;;10.15;4.75;;;22.10;99.90;;;;;;6691551;88;20194;-77
2021/09/17 12:11:41;;;;;;;8.00;5.72;;;24.30;99.90;;;;;;6695029;88;20583;-80
2021/09/17 12:21:42;;;;;;;11.02;5.80;;;25.60;99.90;;;;;;6706584;88;20194;-79
2021/09/17 12:31:43;;;;;;;11.15;7.03;;;26.80;99.90;;;;;;6700550;88;20202;-80
2021/09/17 12:41:43;;;;;;;12.17;5.57;;;27.20;97.30;;;;;;6696067;88;20218;-77
2021/09/17 12:51:55;;;;;;;10.18;6.80;;;28.60;95.70;;;;;;6698155;88;20675;-78
2021/09/17 13:01:56;;;;;;;8.43;5.77;;;28.20;95.20;;;;;;6693320;88;20178;-77
2021/09/17 13:11:56;;;;;;;9.02;6.35;;;28.50;94.60;;;;;;6698613;88;20925;-77
2021/09/17 13:21:57;;;;;;;8.77;5.80;;;29.60;93.00;;;;;;6698129;88;20229;-78
2021/09/17 13:31:57;;;;;;;9.98;5.62;;;26.90;95.80;;;;;;6702268;88;20753;-78
2021/09/17 13:41:58;;;;;;;10.82;5.80;;;27.70;95.00;;;;;;6698574;88;20235;-79
2021/09/17 14:02:03;;;;;;;14.55;6.68;;;28.10;92.60;;;;;;6715596;88;20229;-78
2021/09/17 14:12:04;;;;;;;9.68;6.62;;;26.30;94.30;;;;;;6715822;88;20199;-78
2021/09/17 14:22:06;;;;;;;9.15;6.47;;;25.40;96.20;;;;;;6715471;88;20629;-78
2021/09/17 14:32:07;;;;;;;8.90;5.97;;;25.30;97.30;;;;;;6715710;88;20181;-77
2021/09/17 14:42:08;;;;;;;12.40;6.87;;;25.30;97.60;;;;;;6715401;88;20294;-79
2021/09/17 14:52:08;;;;;;;9.27;6.30;;;25.30;96.80;;;;;;6716137;88;20238;-77
2021/09/17 15:02:10;;;;;;;9.57;5.82;;;25.40;97.60;;;;;;6715601;88;20181;-77
2021/09/17 15:12:11;;;;;;;10.40;5.85;;;25.60;97.40;;;;;;6715333;88;20864;-79
2021/09/17 15:22:11;;;;;;;8.38;6.30;;;25.50;97.70;;;;;;6716047;88;20238;-77
2021/09/17 15:32:12;;;;;;;8.50;5.87;;;24.50;98.90;;;;;;6715248;88;20689;-77
2021/09/17 15:42:14;;;;;;;8.63;5.30;;;24.70;98.30;;;;;;6715165;88;20715;-76
2021/09/17 15:52:15;;;;;;;7.05;4.95;;;24.00;97.60;;;;;;6717419;88;20760;-78
2021/09/17 16:02:16;;;;;;;6.12;4.90;;;23.40;97.70;;;;;;6714609;88;20657;-78
2021/09/17 16:12:22;;;;;;;7.33;4.50;;;23.60;97.80;;;;;;6714734;88;20209;-78
2021/09/17 16:22:23;;;;;;;5.70;3.35;;;23.90;97.30;;;;;;6714069;88;20241;-77
2021/09/17 16:32:24;;;;;;;8.57;4.40;;;23.70;97.90;;;;;;6714165;88;20217;-77
2021/09/17 16:42:24;;;;;;;6.37;5.07;;;23.30;98.90;;;;;;6715191;88;20709;-79
2021/09/17 16:52:25;;;;;;;6.35;4.97;;;22.80;99.90;;;;;;6714583;88;20515;-77
2021/09/17 17:02:25;;;;;;;6.07;4.12;;;22.40;99.90;;;;;;6714385;88;20327;-77
2021/09/17 17:12:26;;;;;;;12.40;6.25;;;21.90;99.90;;;;;;6713530;88;20730;-77
2021/09/17 17:22:27;;;;;;;11.43;6.40;;;21.60;99.90;;;;;;6713545;88;20201;-78
2021/09/17 17:32:27;;;;;;;6.82;5.10;;;21.30;99.90;;;;;;6714049;88;20288;-77
2021/09/17 17:42:28;;;;;;;9.38;5.30;;;20.70;99.90;;;;;;6716635;88;20241;-78
2021/09/17 17:52:28;;;;;;;8.60;5.60;;;20.20;99.90;;;;;;6715501;88;20208;-77
2021/09/17 18:02:29;;;;;;;7.35;5.10;;;19.90;99.90;;;;;;6715589;88;20218;-77
2021/09/17 18:12:30;;;;;;;8.37;6.20;;;19.20;99.90;;;;;;6719271;88;20218;-78
2021/09/17 18:22:32;;;;;;;8.23;5.60;;;18.80;99.90;;;;;;6716857;88;20186;-79
2021/09/17 18:32:34;;;;;;;8.35;5.70;;;18.40;99.90;;;;;;6716313;88;20238;-78
2021/09/17 18:42:35;;;;;;;8.70;6.65;;;18.30;99.90;;;;;;6715814;88;20201;-77
2021/09/17 18:52:36;;;;;;;13.32;8.82;;;18.20;99.90;;;;;;6715642;88;20198;-77
2021/09/17 19:02:37;;;;;;;11.60;7.93;;;17.80;99.90;;;;;;6711996;88;20658;-76
2021/09/17 19:12:37;;;;;;;11.12;8.18;;;17.50;99.90;;;;;;6715248;88;20243;-79
2021/09/17 19:22:39;;;;;;;14.40;8.07;;;17.30;99.90;;;;;;6715319;88;20699;-79
2021/09/17 19:32:42;;;;;;;15.73;9.43;;;17.10;99.90;;;;;;6714903;88;20222;-77
2021/09/17 19:42:43;;;;;;;18.23;10.85;;;17.10;99.90;;;;;;6714519;88;20242;-78
2021/09/17 19:52:45;;;;;;;14.18;10.18;;;16.90;99.90;;;;;;6722231;77;20258;-79
2021/09/17 20:02:46;;;;;;;11.05;7.80;;;16.60;99.90;;;;;;6750733;88;20209;-78
2021/09/17 20:12:46;;;;;;;11.98;8.48;;;16.50;99.90;;;;;;6750590;88;20243;-78
2021/09/17 20:22:47;;;;;;;14.10;9.13;;;16.20;99.90;;;;;;6750809;88;20244;-79
2021/09/17 20:32:49;;;;;;;13.40;9.05;;;16.20;99.90;;;;;;6752033;88;20508;-77
2021/09/17 20:42:49;;;;;;;10.93;7.80;;;15.90;99.90;;;;;;6750859;87;20191;-79
2021/09/17 20:52:51;;;;;;;12.02;8.65;;;15.80;99.90;;;;;;6750605;88;20203;-79
2021/09/17 21:02:51;;;;;;;11.23;8.60;;;15.70;99.90;;;;;;6751091;87;20214;-80
2021/09/17 21:12:52;;;;;;;11.93;7.97;;;15.60;99.90;;;;;;6753679;88;20266;-79
2021/09/17 21:22:53;;;;;;;10.57;7.80;;;15.60;99.90;;;;;;6754106;88;20220;-78
2021/09/17 21:32:53;;;;;;;13.00;9.30;;;15.60;99.90;;;;;;6754319;88;20297;-78
2021/09/17 21:42:54;;;;;;;12.13;9.30;;;15.50;99.90;;;;;;6753918;88;20694;-78
2021/09/17 21:52:54;;;;;;;11.52;7.93;;;15.20;99.90;;;;;;6754435;87;20204;-80
2021/09/17 22:02:55;;;;;;;11.32;7.97;;;15.10;99.90;;;;;;6755579;88;20217;-79
2021/09/17 22:12:55;;;;;;;12.85;8.10;;;15.10;99.90;;;;;;6760033;88;20286;-78
2021/09/17 22:22:56;;;;;;;13.52;8.27;;;15.00;99.90;;;;;;6755593;88;20183;-80
2021/09/17 22:32:57;;;;;;;12.00;8.02;;;15.00;99.90;;;;;;6753562;87;20347;-79
2021/09/17 22:42:58;;;;;;;14.10;8.48;;;15.10;99.90;;;;;;6754293;87;20319;-79
2021/09/17 22:52:58;;;;;;;11.93;8.32;;;15.00;99.90;;;;;;6754379;88;20191;-78
2021/09/17 23:02:59;;;;;;;11.32;8.10;;;14.90;99.90;;;;;;6755086;88;20307;-77
2021/09/17 23:13:00;;;;;;;11.55;8.30;;;15.00;99.90;;;;;;6754095;88;20200;-78
2021/09/17 23:23:00;;;;;;;12.10;7.50;;;15.10;99.90;;;;;;6754211;88;20247;-78
2021/09/17 23:33:01;;;;;;;10.93;7.57;;;15.10;99.90;;;;;;6753308;88;20385;-78
2021/09/17 23:43:01;;;;;;;14.07;8.00;;;15.00;99.90;;;;;;6753618;88;20313;-78
2021/09/17 23:53:02;;;;;;;11.10;7.40;;;14.70;99.90;;;;;;6750696;88;20508;-78
